createdAt,value
2018-07-16T00:00:33.860Z,101003.69
2018-07-16T00:03:03.012Z,101004.77
2018-07-16T00:05:32.281Z,101008.34
2018-07-16T00:08:01.637Z,101007.23
2018-07-16T00:10:30.890Z,101005.09
2018-07-16T00:13:00.267Z,100999.69
2018-07-16T00:15:29.582Z,101005.09
2018-07-16T00:17:58.870Z,101005.39
2018-07-16T00:20:28.148Z,100999.17
2018-07-16T00:22:57.419Z,100996.17
2018-07-16T00:25:26.710Z,100991.31
2018-07-16T00:27:55.963Z,100997.96
2018-07-16T00:30:25.239Z,100989.17
2018-07-16T00:32:54.496Z,100988.81
2018-07-16T00:35:23.813Z,100987.77
2018-07-16T00:37:53.045Z,100984.27
2018-07-16T00:40:22.374Z,100988.84
2018-07-16T00:42:51.694Z,100983.70
2018-07-16T00:45:20.982Z,100979.16
2018-07-16T00:47:50.301Z,100970.00
2018-07-16T00:50:19.552Z,100973.91
2018-07-16T00:52:48.813Z,100969.95
2018-07-16T00:55:18.103Z,100966.56
2018-07-16T00:57:47.362Z,100961.21
2018-07-16T01:00:16.873Z,100963.70
2018-07-16T01:02:46.248Z,100961.38
2018-07-16T01:05:15.660Z,100960.64
2018-07-16T01:07:45.009Z,100957.44
2018-07-16T01:10:14.395Z,100954.34
2018-07-16T01:12:43.489Z,100955.74
2018-07-16T01:15:12.886Z,100952.25
2018-07-16T01:17:42.278Z,100954.72
2018-07-16T01:20:11.751Z,100955.01
2018-07-16T01:22:41.172Z,100950.69
2018-07-16T01:25:10.795Z,100950.69
2018-07-16T01:27:40.272Z,100952.00
2018-07-16T01:30:09.532Z,100954.06
2018-07-16T01:32:38.939Z,100950.95
2018-07-16T01:35:08.222Z,100954.34
2018-07-16T01:37:37.490Z,100950.38
2018-07-16T01:40:06.923Z,100955.07
2018-07-16T01:42:36.257Z,100952.14
2018-07-16T01:45:05.601Z,100949.90
2018-07-16T01:47:34.909Z,100946.88
2018-07-16T01:50:04.243Z,100942.83
2018-07-16T01:52:33.536Z,100939.15
2018-07-16T01:55:02.936Z,100936.46
2018-07-16T01:57:32.287Z,100938.33
2018-07-16T02:00:01.391Z,100934.81
2018-07-16T02:02:30.819Z,100933.30
2018-07-16T02:05:00.339Z,100935.37
2018-07-16T02:07:29.637Z,100936.13
2018-07-16T02:09:58.765Z,100927.01
2018-07-16T02:12:28.272Z,100929.91
2018-07-16T02:14:57.601Z,100929.63
2018-07-16T02:17:26.866Z,100925.02
2018-07-16T02:19:56.221Z,100925.08
2018-07-16T02:22:25.490Z,100924.18
2018-07-16T02:24:54.819Z,100924.05
2018-07-16T02:27:24.099Z,100934.11
2018-07-16T02:29:53.373Z,100934.67
2018-07-16T02:32:22.623Z,100935.83
2018-07-16T02:34:52.213Z,100930.82
2018-07-16T02:37:21.498Z,100920.05
2018-07-16T02:39:50.841Z,100924.67
2018-07-16T02:42:20.159Z,100926.98
2018-07-16T02:44:49.391Z,100921.97
2018-07-16T02:47:18.783Z,100929.13
2018-07-16T02:49:47.838Z,100928.42
2018-07-16T02:52:17.213Z,100929.55
2018-07-16T02:54:46.487Z,100927.38
2018-07-16T02:57:15.857Z,100931.88
2018-07-16T02:59:45.254Z,100936.85
2018-07-16T03:02:14.302Z,100939.08
2018-07-16T03:04:43.689Z,100936.55
2018-07-16T03:07:13.276Z,100937.69
2018-07-16T03:09:42.493Z,100932.52
2018-07-16T03:12:11.885Z,100934.45
2018-07-16T03:14:41.443Z,100937.54
2018-07-16T03:17:10.872Z,100937.30
2018-07-16T03:19:40.292Z,100928.64
2018-07-16T03:22:09.560Z,100927.22
2018-07-16T03:24:38.896Z,100928.89
2018-07-16T03:27:08.200Z,100929.45
2018-07-16T03:29:37.577Z,100931.32
2018-07-16T03:32:06.903Z,100931.92
2018-07-16T03:34:36.270Z,100931.83
2018-07-16T03:37:05.569Z,100933.09
2018-07-16T03:39:34.898Z,100932.32
2018-07-16T03:42:06.425Z,100934.41
2018-07-16T03:44:35.777Z,100934.00
2018-07-16T03:47:05.218Z,100931.17
2018-07-16T03:49:34.486Z,100928.18
2018-07-16T03:52:03.527Z,100929.66
2018-07-16T03:54:32.954Z,100935.13
2018-07-16T03:57:02.349Z,100933.81
2018-07-16T03:59:31.656Z,100933.95
2018-07-16T04:02:01.060Z,100934.20
2018-07-16T04:04:30.395Z,100942.70
2018-07-16T04:06:59.740Z,100937.65
2018-07-16T04:09:29.025Z,100937.00
2018-07-16T04:11:58.361Z,100939.94
2018-07-16T04:14:27.675Z,100945.96
2018-07-16T04:16:56.945Z,100942.25
2018-07-16T04:19:26.214Z,100942.10
2018-07-16T04:21:55.469Z,100947.23
2018-07-16T04:24:24.825Z,100948.66
2018-07-16T04:26:54.226Z,100947.58
2018-07-16T04:29:23.744Z,100949.40
2018-07-16T04:31:53.021Z,100942.88
2018-07-16T04:34:22.283Z,100941.29
2018-07-16T04:36:51.634Z,100947.02
2018-07-16T04:39:21.003Z,100935.52
2018-07-16T04:41:50.257Z,100932.78
2018-07-16T04:44:19.533Z,100935.02
2018-07-16T04:46:48.844Z,100930.41
2018-07-16T04:49:18.127Z,100925.58
2018-07-16T04:51:47.516Z,100924.42
2018-07-16T04:54:16.817Z,100923.81
2018-07-16T04:56:46.062Z,100932.59
2018-07-16T04:59:15.454Z,100933.23
2018-07-16T05:01:45.039Z,100935.64
2018-07-16T05:04:14.454Z,100929.91
2018-07-16T05:06:43.873Z,100930.58
2018-07-16T05:09:13.592Z,100926.27
2018-07-16T05:11:43.001Z,100925.61
2018-07-16T05:14:14.479Z,100927.98
2018-07-16T05:16:43.894Z,100930.54
2018-07-16T05:19:13.312Z,100923.39
2018-07-16T05:21:42.656Z,100923.84
2018-07-16T05:24:12.622Z,100921.41
2018-07-16T05:26:42.167Z,100917.45
2018-07-16T05:29:11.280Z,100911.05
2018-07-16T05:31:40.903Z,100912.41
2018-07-16T05:34:10.345Z,100912.48
2018-07-16T05:36:39.768Z,100910.96
2018-07-16T05:39:09.271Z,100908.55
2018-07-16T05:41:38.617Z,100902.62
2018-07-16T05:44:07.725Z,100900.80
2018-07-16T05:46:37.100Z,100906.61
2018-07-16T05:49:06.582Z,100907.31
2018-07-16T05:51:35.837Z,100901.92
2018-07-16T05:54:05.133Z,100901.97
2018-07-16T05:56:34.245Z,100901.73
2018-07-16T05:59:03.575Z,100904.27
2018-07-16T06:01:32.853Z,100898.31
2018-07-16T06:04:02.304Z,100897.30
2018-07-16T06:06:31.918Z,100903.36
2018-07-16T06:09:01.473Z,100905.05
2018-07-16T06:11:30.841Z,100902.00
2018-07-16T06:13:59.966Z,100902.14
2018-07-16T06:16:29.297Z,100905.34
2018-07-16T06:18:58.600Z,100900.50
2018-07-16T06:21:27.854Z,100899.17
2018-07-16T06:23:57.236Z,100896.98
2018-07-16T06:26:26.449Z,100896.92
2018-07-16T06:28:55.707Z,100891.54
2018-07-16T06:31:25.068Z,100892.52
2018-07-16T06:33:54.450Z,100892.33
2018-07-16T06:36:23.703Z,100889.82
2018-07-16T06:38:53.092Z,100884.34
2018-07-16T06:41:22.692Z,100888.93
2018-07-16T06:43:51.764Z,100891.50
2018-07-16T06:46:21.090Z,100894.14
2018-07-16T06:48:50.444Z,100899.40
2018-07-16T06:51:19.815Z,100901.41
2018-07-16T06:53:49.208Z,100901.42
2018-07-16T06:56:18.521Z,100894.60
2018-07-16T06:58:47.851Z,100896.43
2018-07-16T07:01:17.649Z,100892.62
2018-07-16T07:03:46.902Z,100894.81
2018-07-16T07:06:16.298Z,100894.72
2018-07-16T07:08:45.711Z,100893.10
2018-07-16T07:11:14.981Z,100902.39
2018-07-16T07:13:44.325Z,100897.77
2018-07-16T07:16:13.631Z,100892.88
2018-07-16T07:18:42.957Z,100894.34
2018-07-16T07:21:12.529Z,100889.55
2018-07-16T07:23:41.918Z,100895.74
2018-07-16T07:26:11.232Z,100889.97
2018-07-16T07:28:40.633Z,100889.54
2018-07-16T07:31:09.977Z,100885.57
2018-07-16T07:33:39.262Z,100881.14
2018-07-16T07:36:08.590Z,100876.80
2018-07-16T07:38:37.919Z,100882.52
2018-07-16T07:41:07.842Z,100875.79
2018-07-16T07:43:37.138Z,100869.39
2018-07-16T07:46:06.478Z,100870.38
2018-07-16T07:48:35.864Z,100868.56
2018-07-16T07:51:05.195Z,100862.41
2018-07-16T07:53:34.597Z,100865.07
2018-07-16T07:56:03.908Z,100865.89
2018-07-16T07:58:33.224Z,100866.70
2018-07-16T08:01:02.750Z,100861.86
2018-07-16T08:03:32.060Z,100863.04
2018-07-16T08:06:06.805Z,100856.72
2018-07-16T08:08:37.463Z,100853.50
2018-07-16T08:11:07.176Z,100855.11
2018-07-16T08:13:36.527Z,100851.18
2018-07-16T08:16:05.818Z,100852.56
2018-07-16T08:18:35.116Z,100856.89
2018-07-16T08:21:04.440Z,100851.56
2018-07-16T08:23:33.740Z,100858.03
2018-07-16T08:26:03.365Z,100862.52
2018-07-16T08:28:32.663Z,100863.41
2018-07-16T08:31:01.953Z,100853.88
2018-07-16T08:33:31.326Z,100862.52
2018-07-16T08:36:00.635Z,100862.41
2018-07-16T08:38:30.142Z,100861.03
2018-07-16T08:40:59.556Z,100861.56
2018-07-16T08:43:28.927Z,100860.97
2018-07-16T08:45:58.295Z,100854.20
2018-07-16T08:48:27.627Z,100856.34
2018-07-16T08:50:56.931Z,100855.41
2018-07-16T08:53:26.207Z,100852.93
2018-07-16T08:55:56.534Z,100853.63
2018-07-16T08:58:25.895Z,100849.95
2018-07-16T09:00:55.206Z,100845.19
2018-07-16T09:03:25.020Z,100848.15
2018-07-16T09:05:59.670Z,100850.32
2018-07-16T09:08:28.976Z,100847.63
2018-07-16T09:10:58.306Z,100843.19
2018-07-16T09:13:27.693Z,100839.98
2018-07-16T09:15:56.940Z,100845.42
2018-07-16T09:18:26.256Z,100848.45
2018-07-16T09:20:55.503Z,100852.31
2018-07-16T09:23:24.823Z,100844.06
2018-07-16T09:25:54.091Z,100848.47
2018-07-16T09:28:23.403Z,100851.63
2018-07-16T09:30:52.643Z,100846.09
2018-07-16T09:33:21.913Z,100849.42
2018-07-16T09:35:51.348Z,100841.97
2018-07-16T09:38:20.629Z,100843.78
2018-07-16T09:40:49.916Z,100840.83
2018-07-16T09:43:19.357Z,100841.77
2018-07-16T09:45:48.639Z,100837.13
2018-07-16T09:48:17.973Z,100833.11
2018-07-16T09:50:47.338Z,100831.84
2018-07-16T09:53:16.611Z,100834.75
2018-07-16T09:55:45.861Z,100836.73
2018-07-16T09:58:15.293Z,100825.73
2018-07-16T10:00:50.019Z,100825.77
2018-07-16T10:03:19.306Z,100823.23
2018-07-16T10:05:48.598Z,100818.80
2018-07-16T10:08:17.904Z,100819.56
2018-07-16T10:10:47.125Z,100821.23
2018-07-16T10:13:16.404Z,100816.13
2018-07-16T10:15:45.687Z,100818.33
2018-07-16T10:18:15.074Z,100815.29
2018-07-16T10:20:44.550Z,100819.27
2018-07-16T10:23:13.869Z,100804.45
2018-07-16T10:25:43.484Z,100802.11
2018-07-16T10:28:12.754Z,100798.66
2018-07-16T10:31:02.152Z,100808.98
2018-07-16T10:33:31.507Z,100805.98
2018-07-16T10:36:00.801Z,100807.00
2018-07-16T10:38:31.039Z,100805.70
2018-07-16T10:44:00.923Z,100802.89
2018-07-16T10:46:30.382Z,100800.94
2018-07-16T10:49:00.463Z,100794.23
2018-07-16T10:51:29.841Z,100794.56
2018-07-16T10:53:59.150Z,100789.84
2018-07-16T10:56:28.575Z,100794.74
2018-07-16T10:58:58.009Z,100789.45
2018-07-16T11:01:27.285Z,100783.53
2018-07-16T11:03:56.895Z,100780.38
2018-07-16T11:06:26.237Z,100784.45
2018-07-16T11:08:55.699Z,100780.59
2018-07-16T11:11:24.990Z,100783.12
2018-07-16T11:13:54.327Z,100781.23
2018-07-16T11:16:23.631Z,100780.09
2018-07-16T11:18:52.954Z,100783.72
2018-07-16T11:21:22.248Z,100781.59
2018-07-16T11:23:51.521Z,100772.30
2018-07-16T11:26:20.799Z,100771.45
2018-07-16T11:28:50.112Z,100774.77
2018-07-16T11:31:19.415Z,100775.44
2018-07-16T11:33:48.736Z,100776.05
2018-07-16T11:36:18.028Z,100772.59
2018-07-16T11:38:47.302Z,100770.00
2018-07-16T11:41:16.682Z,100767.48
2018-07-16T11:43:46.312Z,100767.66
2018-07-16T11:46:15.672Z,100767.59
2018-07-16T11:48:45.047Z,100762.34
2018-07-16T11:51:14.453Z,100764.28
2018-07-16T11:53:43.751Z,100756.45
2018-07-16T11:56:13.188Z,100753.02
2018-07-16T11:58:42.678Z,100756.50
2018-07-16T12:01:12.232Z,100755.94
2018-07-16T12:03:41.888Z,100741.58
2018-07-16T12:06:16.690Z,100748.95
2018-07-16T12:08:45.983Z,100737.61
2018-07-16T12:11:15.277Z,100744.07
2018-07-16T12:13:44.632Z,100739.15
2018-07-16T12:16:14.047Z,100737.88
2018-07-16T12:18:43.466Z,100733.79
2018-07-16T12:21:12.857Z,100725.91
2018-07-16T12:23:42.410Z,100725.63
2018-07-16T12:26:11.917Z,100728.76
2018-07-16T12:28:41.299Z,100723.23
2018-07-16T12:31:10.957Z,100714.38
2018-07-16T12:33:40.327Z,100715.22
2018-07-16T12:36:09.728Z,100718.87
2018-07-16T12:38:41.972Z,100715.31
2018-07-16T12:41:11.440Z,100712.83
2018-07-16T12:43:40.911Z,100706.33
2018-07-16T12:46:10.249Z,100711.71
2018-07-16T12:48:39.586Z,100707.13
2018-07-16T12:51:08.956Z,100712.36
2018-07-16T12:53:38.239Z,100705.98
2018-07-16T12:56:07.546Z,100695.05
2018-07-16T12:58:36.811Z,100693.64
2018-07-16T13:01:06.104Z,100694.57
2018-07-16T13:03:35.422Z,100686.23
2018-07-16T13:06:04.732Z,100689.67
2018-07-16T13:08:34.025Z,100685.72
2018-07-16T13:11:03.342Z,100681.05
2018-07-16T13:13:32.645Z,100678.38
2018-07-16T13:16:02.142Z,100679.97
2018-07-16T13:18:31.358Z,100684.20
2018-07-16T13:21:00.749Z,100676.91
2018-07-16T13:23:30.099Z,100671.06
2018-07-16T13:25:59.460Z,100669.06
2018-07-16T13:28:28.798Z,100668.24
2018-07-16T13:30:58.304Z,100661.59
2018-07-16T13:33:27.610Z,100661.73
2018-07-16T13:35:57.032Z,100656.09
2018-07-16T13:38:26.337Z,100659.09
2018-07-16T13:40:55.600Z,100653.30
2018-07-16T13:43:24.931Z,100651.41
2018-07-16T13:45:54.355Z,100653.70
2018-07-16T13:48:23.669Z,100645.52
2018-07-16T13:50:52.962Z,100649.11
2018-07-16T13:53:22.325Z,100648.82
2018-07-16T13:55:54.511Z,100657.37
2018-07-16T13:58:23.914Z,100649.66
2018-07-16T14:00:53.203Z,100635.41
2018-07-16T14:03:22.510Z,100639.22
2018-07-16T14:05:51.819Z,100638.84
2018-07-16T14:08:21.186Z,100634.20
2018-07-16T14:10:50.501Z,100628.53
2018-07-16T14:13:19.812Z,100631.67
2018-07-16T14:15:49.066Z,100626.10
2018-07-16T14:18:18.322Z,100627.59
2018-07-16T14:20:47.609Z,100623.19
2018-07-16T14:23:16.878Z,100628.69
2018-07-16T14:25:46.285Z,100620.80
2018-07-16T14:28:15.570Z,100622.05
2018-07-16T14:30:44.916Z,100624.17
2018-07-16T14:33:14.224Z,100625.23
2018-07-16T14:35:43.546Z,100627.18
2018-07-16T14:38:16.647Z,100620.32
2018-07-16T14:40:45.963Z,100621.02
2018-07-16T14:43:15.249Z,100621.98
2018-07-16T14:45:44.533Z,100625.12
2018-07-16T14:48:13.925Z,100625.56
2018-07-16T14:50:43.329Z,100626.86
2018-07-16T14:53:12.668Z,100618.48
2018-07-16T14:55:42.096Z,100613.86
2018-07-16T14:58:11.429Z,100616.83
2018-07-16T15:00:40.885Z,100619.86
2018-07-16T15:03:10.477Z,100618.44
2018-07-16T15:05:39.821Z,100608.36
2018-07-16T15:08:09.136Z,100613.23
2018-07-16T15:10:38.473Z,100610.09
2018-07-16T15:13:07.997Z,100613.68
2018-07-16T15:15:37.610Z,100612.36
2018-07-16T15:18:07.169Z,100606.86
2018-07-16T15:20:36.719Z,100612.09
2018-07-16T15:23:05.905Z,100606.41
2018-07-16T15:25:35.338Z,100606.46
2018-07-16T15:28:04.714Z,100605.32
2018-07-16T15:30:33.959Z,100609.48
2018-07-16T15:33:03.291Z,100615.48
2018-07-16T15:35:32.723Z,100613.17
2018-07-16T15:38:02.130Z,100616.02
2018-07-16T15:40:31.427Z,100611.68
2018-07-16T15:43:00.808Z,100612.22
2018-07-16T15:45:30.177Z,100603.00
2018-07-16T15:47:59.502Z,100601.86
2018-07-16T15:50:28.772Z,100601.16
2018-07-16T15:52:58.105Z,100594.91
2018-07-16T15:55:27.224Z,100598.61
2018-07-16T15:57:56.517Z,100595.98
2018-07-16T16:00:25.794Z,100589.26
2018-07-16T16:02:55.124Z,100598.71
2018-07-16T16:05:24.386Z,100591.55
2018-07-16T16:07:53.700Z,100587.36
2018-07-16T16:10:23.118Z,100592.79
2018-07-16T16:12:52.128Z,100595.97
2018-07-16T16:15:21.499Z,100593.55
2018-07-16T16:17:50.790Z,100588.52
2018-07-16T16:20:20.176Z,100585.50
2018-07-16T16:22:49.477Z,100588.77
2018-07-16T16:25:18.805Z,100593.49
2018-07-16T16:27:48.120Z,100591.03
2018-07-16T16:30:17.426Z,100592.87
2018-07-16T16:32:47.056Z,100581.84
2018-07-16T16:35:16.241Z,100578.59
2018-07-16T16:37:45.569Z,100586.00
2018-07-16T16:40:14.899Z,100579.56
2018-07-16T16:42:44.328Z,100578.91
2018-07-16T16:45:13.814Z,100572.22
2018-07-16T16:47:43.170Z,100571.56
2018-07-16T16:50:12.764Z,100578.33
2018-07-16T16:52:42.289Z,100578.56
2018-07-16T16:55:12.457Z,100571.78
2018-07-16T16:57:41.782Z,100577.34
2018-07-16T17:00:11.168Z,100576.31
2018-07-16T17:02:40.599Z,100583.38
2018-07-16T17:05:11.200Z,100573.00
2018-07-16T17:07:41.684Z,100579.87
2018-07-16T17:10:11.784Z,100582.05
2018-07-16T17:12:41.177Z,100575.17
2018-07-16T17:15:10.524Z,100579.70
2018-07-16T17:17:39.800Z,100579.86
2018-07-16T17:20:09.167Z,100571.84
2018-07-16T17:22:38.463Z,100578.70
2018-07-16T17:25:08.339Z,100578.06
2018-07-16T17:27:37.685Z,100581.22
2018-07-16T17:30:06.774Z,100585.25
2018-07-16T17:32:36.055Z,100582.73
2018-07-16T17:35:05.502Z,100583.56
2018-07-16T17:37:34.765Z,100584.06
2018-07-16T17:40:04.064Z,100588.93
2018-07-16T17:42:33.529Z,100587.73
2018-07-16T17:45:03.321Z,100590.27
2018-07-16T17:47:32.466Z,100581.88
2018-07-16T17:50:01.977Z,100583.39
2018-07-16T17:52:58.462Z,100581.53
2018-07-16T17:55:38.312Z,100589.57
2018-07-16T17:58:07.799Z,100587.91
2018-07-16T18:00:37.175Z,100584.19
2018-07-16T18:03:06.546Z,100585.56
2018-07-16T18:05:35.896Z,100595.41
2018-07-16T18:08:05.560Z,100591.38
2018-07-16T18:10:34.617Z,100589.97
2018-07-16T18:13:04.065Z,100593.80
2018-07-16T18:15:33.377Z,100595.14
2018-07-16T18:18:02.451Z,100596.44
2018-07-16T18:20:31.929Z,100594.77
2018-07-16T18:23:01.251Z,100591.45
2018-07-16T18:25:30.658Z,100595.61
2018-07-16T18:28:00.077Z,100602.77
2018-07-16T18:30:29.185Z,100601.83
2018-07-16T18:32:58.500Z,100599.27
2018-07-16T18:35:27.910Z,100605.83
2018-07-16T18:37:57.338Z,100602.31
2018-07-16T18:40:26.737Z,100605.09
2018-07-16T18:42:55.962Z,100606.66
2018-07-16T18:45:25.069Z,100611.56
2018-07-16T18:47:54.502Z,100611.99
2018-07-16T18:50:23.790Z,100617.66
2018-07-16T18:52:53.210Z,100615.79
2018-07-16T18:55:22.467Z,100621.77
2018-07-16T18:57:51.781Z,100622.97
2018-07-16T19:00:21.168Z,100625.28
2018-07-16T19:02:50.528Z,100628.29
2018-07-16T19:05:19.898Z,100631.75
2018-07-16T19:07:49.940Z,100634.42
2018-07-16T19:10:19.188Z,100633.75
2018-07-16T19:12:48.458Z,100635.62
2018-07-16T19:15:28.064Z,100643.59
2018-07-16T19:17:58.164Z,100646.54
2018-07-16T19:20:34.402Z,100652.59
2018-07-16T19:23:03.791Z,100657.50
2018-07-16T19:25:33.140Z,100655.14
2018-07-16T19:28:02.524Z,100656.38
2018-07-16T19:30:31.811Z,100662.52
2018-07-16T19:33:01.207Z,100665.20
2018-07-16T19:35:30.653Z,100666.67
2018-07-16T19:37:59.940Z,100672.00
2018-07-16T19:40:29.310Z,100673.88
2018-07-16T19:42:58.681Z,100680.88
2018-07-16T19:45:28.186Z,100684.52
2018-07-16T19:47:57.496Z,100690.55
2018-07-16T19:50:26.818Z,100690.32
2018-07-16T19:52:56.131Z,100698.83
2018-07-16T19:55:25.422Z,100696.88
2018-07-16T19:57:54.839Z,100692.89
2018-07-16T20:00:24.211Z,100693.17
2018-07-16T20:02:53.741Z,100704.16
2018-07-16T20:05:23.153Z,100707.40
2018-07-16T20:07:52.636Z,100712.36
2018-07-16T20:10:21.937Z,100714.66
2018-07-16T20:12:51.243Z,100711.72
2018-07-16T20:15:20.742Z,100711.66
2018-07-16T20:17:50.159Z,100710.92
2018-07-16T20:20:19.513Z,100714.86
2018-07-16T20:22:48.856Z,100718.72
2018-07-16T20:25:18.229Z,100715.27
2018-07-16T20:27:47.561Z,100723.97
2018-07-16T20:30:16.876Z,100718.44
2018-07-16T20:32:46.388Z,100724.18
2018-07-16T20:35:15.883Z,100721.78
2018-07-16T20:37:45.306Z,100731.39
2018-07-16T20:40:14.711Z,100730.19
2018-07-16T20:42:44.066Z,100730.38
2018-07-16T20:45:13.626Z,100723.42
2018-07-16T20:47:43.095Z,100730.02
2018-07-16T20:50:14.367Z,100724.05
2018-07-16T20:52:43.741Z,100737.64
2018-07-16T20:55:13.217Z,100739.48
2018-07-16T20:57:42.728Z,100742.95
2018-07-16T21:00:12.233Z,100739.48
2018-07-16T21:02:41.652Z,100741.10
2018-07-16T21:05:11.075Z,100742.69
2018-07-16T21:07:40.556Z,100753.03
2018-07-16T21:10:09.928Z,100755.37
2018-07-16T21:12:39.324Z,100752.63
2018-07-16T21:15:08.617Z,100759.83
2018-07-16T21:17:38.051Z,100762.69
2018-07-16T21:20:09.256Z,100764.33
2018-07-16T21:22:38.547Z,100762.81
2018-07-16T21:25:09.439Z,100767.08
2018-07-16T21:27:38.823Z,100769.18
2018-07-16T21:30:08.245Z,100766.96
2018-07-16T21:32:37.740Z,100760.47
2018-07-16T21:35:07.142Z,100766.41
2018-07-16T21:37:36.460Z,100761.00
2018-07-16T21:40:05.838Z,100764.17
2018-07-16T21:42:35.168Z,100758.25
2018-07-16T21:45:04.596Z,100755.26
2018-07-16T21:47:33.722Z,100763.72
2018-07-16T21:50:03.129Z,100766.98
2018-07-16T21:52:32.442Z,100764.61
2018-07-16T21:55:01.783Z,100760.96
2018-07-16T21:57:31.343Z,100770.37
2018-07-16T22:00:00.733Z,100770.27
2018-07-16T22:02:30.225Z,100767.23
2018-07-16T22:04:59.752Z,100766.28
2018-07-16T22:07:30.337Z,100768.26
2018-07-16T22:10:00.011Z,100768.13
2018-07-16T22:12:29.200Z,100769.95
2018-07-16T22:14:58.227Z,100772.61
2018-07-16T22:17:27.486Z,100769.83
2018-07-16T22:19:56.860Z,100779.84
2018-07-16T22:22:26.289Z,100788.17
2018-07-16T22:24:55.684Z,100782.28
2018-07-16T22:27:24.909Z,100781.67
2018-07-16T22:29:54.232Z,100785.78
2018-07-16T22:32:23.641Z,100782.41
2018-07-16T22:34:53.510Z,100781.34
2018-07-16T22:37:22.924Z,100784.49
2018-07-16T22:39:52.242Z,100785.45
2018-07-16T22:42:21.518Z,100789.52
2018-07-16T22:44:50.728Z,100782.77
2018-07-16T22:47:24.037Z,100786.48
2018-07-16T22:49:53.325Z,100787.56
2018-07-16T22:52:22.677Z,100790.58
2018-07-16T22:54:52.063Z,100789.52
2018-07-16T22:57:21.340Z,100786.61
2018-07-16T22:59:50.661Z,100791.78
2018-07-16T23:02:20.015Z,100790.94
2018-07-16T23:04:49.338Z,100798.08
2018-07-16T23:07:18.613Z,100789.36
2018-07-16T23:09:48.094Z,100790.12
2018-07-16T23:12:17.491Z,100796.24
2018-07-16T23:14:46.877Z,100794.07
2018-07-16T23:17:16.588Z,100797.33
2018-07-16T23:19:46.050Z,100799.14
2018-07-16T23:22:15.436Z,100790.08
2018-07-16T23:24:45.091Z,100796.08
2018-07-16T23:27:14.281Z,100800.31
2018-07-16T23:29:44.605Z,100807.77
2018-07-16T23:32:14.197Z,100796.44
2018-07-16T23:34:43.635Z,100799.51
2018-07-16T23:37:13.000Z,100799.98
2018-07-16T23:39:42.492Z,100801.78
2018-07-16T23:42:11.858Z,100810.12
2018-07-16T23:44:41.298Z,100803.72
2018-07-16T23:47:10.683Z,100811.19
2018-07-16T23:49:40.007Z,100809.73
2018-07-16T23:52:09.285Z,100816.47
2018-07-16T23:54:38.602Z,100816.23
2018-07-16T23:57:07.914Z,100822.22
2018-07-16T23:59:37.197Z,100821.34
